sensor_id;sensor_type;location;lat;lon;timestamp;pressure;altitude;pressure_sealevel;temperature;humidity
76404;BME280;65232;48.358;2.122;2024-03-08T00:00:11;100215.66;;;6.38;100.00
76404;BME280;65232;48.358;2.122;2024-03-08T00:00:37;100217.31;;;6.38;100.00
76404;BME280;65232;48.358;2.122;2024-03-08T00:01:05;100213.69;;;6.40;100.00
76404;BME280;65232;48.358;2.122;2024-03-08T00:01:32;100216.00;;;6.44;100.00
76404;BME280;65232;48.358;2.122;2024-03-08T00:01:57;100216.00;;;6.44;100.00
76404;BME280;65232;48.358;2.122;2024-03-08T00:02:23;100213.47;;;6.43;100.00
76404;BME280;65232;48.358;2.122;2024-03-08T00:02:48;100215.28;;;6.42;100.00
76404;BME280;65232;48.358;2.122;2024-03-08T00:03:15;100217.94;;;6.42;100.00
76404;BME280;65232;48.358;2.122;2024-03-08T00:03:41;100215.38;;;6.41;100.00
76404;BME280;65232;48.358;2.122;2024-03-08T00:04:06;100209.34;;;6.38;100.00
76404;BME280;65232;48.358;2.122;2024-03-08T00:04:32;100207.41;;;6.41;100.00
76404;BME280;65232;48.358;2.122;2024-03-08T00:04:57;100205.59;;;6.41;100.00
76404;BME280;65232;48.358;2.122;2024-03-08T00:05:22;100210.47;;;6.47;100.00
76404;BME280;65232;48.358;2.122;2024-03-08T00:05:48;100208.66;;;6.48;100.00
76404;BME280;65232;48.358;2.122;2024-03-08T00:06:14;100209.47;;;6.37;100.00
76404;BME280;65232;48.358;2.122;2024-03-08T00:06:39;100213.09;;;6.36;100.00
76404;BME280;65232;48.358;2.122;2024-03-08T00:07:05;100205.97;;;6.36;100.00
76404;BME280;65232;48.358;2.122;2024-03-08T00:07:31;100216.13;;;6.43;100.00
76404;BME280;65232;48.358;2.122;2024-03-08T00:07:56;100210.06;;;6.41;100.00
76404;BME280;65232;48.358;2.122;2024-03-08T00:08:22;100201.50;;;6.37;100.00
76404;BME280;65232;48.358;2.122;2024-03-08T00:08:47;100216.34;;;6.40;100.00
76404;BME280;65232;48.358;2.122;2024-03-08T00:09:13;100218.03;;;6.41;100.00
76404;BME280;65232;48.358;2.122;2024-03-08T00:09:38;100211.03;;;6.40;100.00
76404;BME280;65232;48.358;2.122;2024-03-08T00:10:05;100216.50;;;6.38;100.00
76404;BME280;65232;48.358;2.122;2024-03-08T00:10:30;100216.34;;;6.40;100.00
76404;BME280;65232;48.358;2.122;2024-03-08T00:10:55;100213.94;;;6.36;100.00
76404;BME280;65232;48.358;2.122;2024-03-08T00:11:21;100215.75;;;6.36;100.00
76404;BME280;65232;48.358;2.122;2024-03-08T00:11:46;100212.00;;;6.38;100.00
76404;BME280;65232;48.358;2.122;2024-03-08T00:12:12;100209.34;;;6.38;100.00
76404;BME280;65232;48.358;2.122;2024-03-08T00:12:43;100212.00;;;6.38;100.00
76404;BME280;65232;48.358;2.122;2024-03-08T00:13:09;100207.19;;;6.44;100.00
76404;BME280;65232;48.358;2.122;2024-03-08T00:13:35;100212.50;;;6.44;100.00
76404;BME280;65232;48.358;2.122;2024-03-08T00:14:01;100210.19;;;6.39;100.00
76404;BME280;65232;48.358;2.122;2024-03-08T00:14:27;100205.72;;;6.40;100.00
76404;BME280;65232;48.358;2.122;2024-03-08T00:14:53;100209.47;;;6.37;100.00
76404;BME280;65232;48.358;2.122;2024-03-08T00:15:19;100206.81;;;6.37;100.00
76404;BME280;65232;48.358;2.122;2024-03-08T00:15:45;100208.84;;;6.33;100.00
76404;BME280;65232;48.358;2.122;2024-03-08T00:16:10;100207.88;;;6.34;100.00
76404;BME280;65232;48.358;2.122;2024-03-08T00:16:36;100191.66;;;6.26;100.00
76404;BME280;65232;48.358;2.122;2024-03-08T00:17:02;100200.66;;;6.36;100.00
76404;BME280;65232;48.358;2.122;2024-03-08T00:17:28;100199.81;;;6.36;100.00
76404;BME280;65232;48.358;2.122;2024-03-08T00:17:53;100206.53;;;6.29;100.00
76404;BME280;65232;48.358;2.122;2024-03-08T00:18:19;100204.84;;;6.28;100.00
76404;BME280;65232;48.358;2.122;2024-03-08T00:18:45;100202.81;;;6.31;100.00
76404;BME280;65232;48.358;2.122;2024-03-08T00:19:10;100199.19;;;6.32;100.00
76404;BME280;65232;48.358;2.122;2024-03-08T00:19:35;100202.81;;;6.31;100.00
76404;BME280;65232;48.358;2.122;2024-03-08T00:20:02;100201.50;;;6.37;100.00
76404;BME280;65232;48.358;2.122;2024-03-08T00:20:33;100194.94;;;6.30;100.00
76404;BME280;65232;48.358;2.122;2024-03-08T00:20:58;100199.50;;;6.28;100.00
76404;BME280;65232;48.358;2.122;2024-03-08T00:21:24;100196.66;;;6.42;100.00
76404;BME280;65232;48.358;2.122;2024-03-08T00:21:49;100193.91;;;6.44;100.00
76404;BME280;65232;48.358;2.122;2024-03-08T00:22:15;100197.38;;;6.33;100.00
76404;BME280;65232;48.358;2.122;2024-03-08T00:22:41;100196.75;;;6.29;100.00
76404;BME280;65232;48.358;2.122;2024-03-08T00:23:06;100193.47;;;6.26;100.00
76404;BME280;65232;48.358;2.122;2024-03-08T00:23:31;100190.81;;;6.26;100.00
76404;BME280;65232;48.358;2.122;2024-03-08T00:23:58;100190.59;;;6.29;100.00
76404;BME280;65232;48.358;2.122;2024-03-08T00:24:23;100192.28;;;6.30;100.00
76404;BME280;65232;48.358;2.122;2024-03-08T00:24:50;100191.19;;;6.21;100.00
76404;BME280;65232;48.358;2.122;2024-03-08T00:25:16;100189.97;;;6.25;100.00
76404;BME280;65232;48.358;2.122;2024-03-08T00:25:41;100181.63;;;6.19;100.00
76404;BME280;65232;48.358;2.122;2024-03-08T00:26:07;100188.53;;;6.21;100.00
76404;BME280;65232;48.358;2.122;2024-03-08T00:26:32;100188.63;;;6.20;100.00
76404;BME280;65232;48.358;2.122;2024-03-08T00:26:58;100181.50;;;6.20;100.00
76404;BME280;65232;48.358;2.122;2024-03-08T00:27:23;100188.63;;;6.20;100.00
76404;BME280;65232;48.358;2.122;2024-03-08T00:27:49;100189.47;;;6.20;100.00
76404;BME280;65232;48.358;2.122;2024-03-08T00:28:15;100186.81;;;6.20;100.00
76404;BME280;65232;48.358;2.122;2024-03-08T00:28:42;100189.47;;;6.20;100.00
76404;BME280;65232;48.358;2.122;2024-03-08T00:29:07;100187.56;;;6.22;100.00
76404;BME280;65232;48.358;2.122;2024-03-08T00:29:33;100191.88;;;6.23;100.00
76404;BME280;65232;48.358;2.122;2024-03-08T00:29:59;100191.53;;;6.28;100.00
76404;BME280;65232;48.358;2.122;2024-03-08T00:30:25;100182.84;;;6.26;100.00
76404;BME280;65232;48.358;2.122;2024-03-08T00:30:50;100184.28;;;6.19;100.00
76404;BME280;65232;48.358;2.122;2024-03-08T00:31:16;100187.16;;;6.16;100.00
76404;BME280;65232;48.358;2.122;2024-03-08T00:31:42;100182.91;;;6.13;100.00
76404;BME280;65232;48.358;2.122;2024-03-08T00:32:07;100183.38;;;6.07;100.00
76404;BME280;65232;48.358;2.122;2024-03-08T00:32:33;100177.13;;;6.08;100.00
76404;BME280;65232;48.358;2.122;2024-03-08T00:32:58;100180.38;;;6.12;100.00
76404;BME280;65232;48.358;2.122;2024-03-08T00:33:24;100182.06;;;6.13;100.00
76404;BME280;65232;48.358;2.122;2024-03-08T00:33:50;100184.59;;;6.14;100.00
76404;BME280;65232;48.358;2.122;2024-03-08T00:34:16;100169.00;;;6.10;100.00
76404;BME280;65232;48.358;2.122;2024-03-08T00:34:41;100178.44;;;6.14;100.00
76404;BME280;65232;48.358;2.122;2024-03-08T00:35:07;100176.75;;;6.13;100.00
76404;BME280;65232;48.358;2.122;2024-03-08T00:35:32;100173.13;;;6.14;100.00
76404;BME280;65232;48.358;2.122;2024-03-08T00:35:58;100172.28;;;6.13;100.00
76404;BME280;65232;48.358;2.122;2024-03-08T00:36:23;100178.00;;;6.20;100.00
76404;BME280;65232;48.358;2.122;2024-03-08T00:36:50;100173.97;;;6.14;100.00
76404;BME280;65232;48.358;2.122;2024-03-08T00:37:17;100176.84;;;6.11;100.00
76404;BME280;65232;48.358;2.122;2024-03-08T00:37:42;100173.88;;;6.16;100.00
76404;BME280;65232;48.358;2.122;2024-03-08T00:38:08;100173.53;;;6.20;100.00
76404;BME280;65232;48.358;2.122;2024-03-08T00:38:33;100173.03;;;6.15;100.00
76404;BME280;65232;48.358;2.122;2024-03-08T00:38:59;100172.06;;;6.16;100.00
76404;BME280;65232;48.358;2.122;2024-03-08T00:39:25;100165.50;;;6.09;100.00
76404;BME280;65232;48.358;2.122;2024-03-08T00:39:51;100170.47;;;6.14;100.00
76404;BME280;65232;48.358;2.122;2024-03-08T00:40:17;100171.50;;;6.00;100.00
76404;BME280;65232;48.358;2.122;2024-03-08T00:40:42;100166.72;;;6.05;100.00
76404;BME280;65232;48.358;2.122;2024-03-08T00:41:08;100169.59;;;6.02;100.00
76404;BME280;65232;48.358;2.122;2024-03-08T00:41:33;100162.34;;;6.04;100.00
76404;BME280;65232;48.358;2.122;2024-03-08T00:41:59;100161.50;;;6.04;100.00
76404;BME280;65232;48.358;2.122;2024-03-08T00:42:24;100161.84;;;5.99;100.00
76404;BME280;65232;48.358;2.122;2024-03-08T00:42:49;100166.94;;;6.02;100.00
76404;BME280;65232;48.358;2.122;2024-03-08T00:43:15;100165.13;;;6.03;100.00
76404;BME280;65232;48.358;2.122;2024-03-08T00:43:40;100165.00;;;6.04;100.00
76404;BME280;65232;48.358;2.122;2024-03-08T00:44:06;100168.00;;;5.99;100.00
76404;BME280;65232;48.358;2.122;2024-03-08T00:44:31;100163.31;;;6.03;100.00
76404;BME280;65232;48.358;2.122;2024-03-08T00:44:57;100154.84;;;5.98;100.00
76404;BME280;65232;48.358;2.122;2024-03-08T00:45:23;100164.38;;;6.00;100.00
76404;BME280;65232;48.358;2.122;2024-03-08T00:45:48;100161.84;;;5.99;100.00
76404;BME280;65232;48.358;2.122;2024-03-08T00:46:14;100157.50;;;5.98;100.00
76404;BME280;65232;48.358;2.122;2024-03-08T00:46:40;100151.09;;;6.00;100.00
76404;BME280;65232;48.358;2.122;2024-03-08T00:47:05;100153.75;;;6.00;100.00
76404;BME280;65232;48.358;2.122;2024-03-08T00:47:31;100154.38;;;6.04;100.00
76404;BME280;65232;48.358;2.122;2024-03-08T00:47:56;100148.59;;;6.10;100.00
76404;BME280;65232;48.358;2.122;2024-03-08T00:48:22;100159.84;;;6.14;100.00
76404;BME280;65232;48.358;2.122;2024-03-08T00:48:47;100148.50;;;6.12;100.00
76404;BME280;65232;48.358;2.122;2024-03-08T00:49:12;100147.16;;;6.06;100.00
76404;BME280;65232;48.358;2.122;2024-03-08T00:49:38;100151.22;;;5.99;100.00
76404;BME280;65232;48.358;2.122;2024-03-08T00:50:03;100144.00;;;6.01;100.00
76404;BME280;65232;48.358;2.122;2024-03-08T00:50:29;100142.28;;;6.00;100.00
76404;BME280;65232;48.358;2.122;2024-03-08T00:50:54;100144.31;;;5.96;100.00
76404;BME280;65232;48.358;2.122;2024-03-08T00:51:20;100145.06;;;5.98;100.00
76404;BME280;65232;48.358;2.122;2024-03-08T00:51:45;100148.69;;;5.97;100.00
76404;BME280;65232;48.358;2.122;2024-03-08T00:52:10;100146.97;;;5.96;100.00
76404;BME280;65232;48.358;2.122;2024-03-08T00:52:39;100140.25;;;6.04;100.00
76404;BME280;65232;48.358;2.122;2024-03-08T00:53:04;100136.34;;;5.96;100.00
76404;BME280;65232;48.358;2.122;2024-03-08T00:53:31;100141.78;;;5.95;100.00
76404;BME280;65232;48.358;2.122;2024-03-08T00:53:56;100145.28;;;5.95;100.00
76404;BME280;65232;48.358;2.122;2024-03-08T00:54:21;100145.38;;;5.94;100.00
76404;BME280;65232;48.358;2.122;2024-03-08T00:54:47;100142.88;;;5.92;100.00
76404;BME280;65232;48.358;2.122;2024-03-08T00:55:12;100139.50;;;5.90;100.00
76404;BME280;65232;48.358;2.122;2024-03-08T00:55:38;100139.38;;;5.92;100.00
76404;BME280;65232;48.358;2.122;2024-03-08T00:56:03;100141.06;;;5.93;100.00
76404;BME280;65232;48.358;2.122;2024-03-08T00:56:29;100144.63;;;6.05;100.00
76404;BME280;65232;48.358;2.122;2024-03-08T00:56:55;100136.97;;;6.00;100.00
76404;BME280;65232;48.358;2.122;2024-03-08T00:57:20;100134.53;;;5.97;100.00
76404;BME280;65232;48.358;2.122;2024-03-08T00:57:47;100139.00;;;5.96;100.00
76404;BME280;65232;48.358;2.122;2024-03-08T00:58:13;100130.94;;;5.98;100.00
76404;BME280;65232;48.358;2.122;2024-03-08T00:58:38;100140.94;;;5.94;100.00
76404;BME280;65232;48.358;2.122;2024-03-08T00:59:03;100136.72;;;5.92;100.00
76404;BME280;65232;48.358;2.122;2024-03-08T00:59:29;100133.09;;;5.93;100.00
76404;BME280;65232;48.358;2.122;2024-03-08T00:59:58;100135.13;;;5.89;100.00
76404;BME280;65232;48.358;2.122;2024-03-08T01:00:23;100132.38;;;5.91;100.00
76404;BME280;65232;48.358;2.122;2024-03-08T01:00:49;100128.19;;;5.87;100.00
76404;BME280;65232;48.358;2.122;2024-03-08T01:01:14;100128.28;;;5.98;100.00
76404;BME280;65232;48.358;2.122;2024-03-08T01:01:42;100121.38;;;5.95;100.00
76404;BME280;65232;48.358;2.122;2024-03-08T01:02:09;100128.88;;;5.90;100.00
76404;BME280;65232;48.358;2.122;2024-03-08T01:02:35;100129.47;;;5.94;100.00
76404;BME280;65232;48.358;2.122;2024-03-08T01:03:01;100126.31;;;5.89;100.00
76404;BME280;65232;48.358;2.122;2024-03-08T01:03:28;100124.81;;;5.85;100.00
76404;BME280;65232;48.358;2.122;2024-03-08T01:03:56;100121.31;;;5.84;100.00
76404;BME280;65232;48.358;2.122;2024-03-08T01:04:22;100122.16;;;5.85;100.00
76404;BME280;65232;48.358;2.122;2024-03-08T01:04:48;100122.28;;;5.83;100.00
76404;BME280;65232;48.358;2.122;2024-03-08T01:05:14;100127.56;;;5.83;100.00
76404;BME280;65232;48.358;2.122;2024-03-08T01:05:39;100115.47;;;5.79;100.00
76404;BME280;65232;48.358;2.122;2024-03-08T01:06:04;100125.03;;;5.82;100.00
76404;BME280;65232;48.358;2.122;2024-03-08T01:06:30;100123.13;;;5.84;100.00
76404;BME280;65232;48.358;2.122;2024-03-08T01:06:58;100126.41;;;5.87;100.00
76404;BME280;65232;48.358;2.122;2024-03-08T01:07:24;100119.81;;;5.93;100.00
76404;BME280;65232;48.358;2.122;2024-03-08T01:07:50;100120.78;;;5.92;100.00
76404;BME280;65232;48.358;2.122;2024-03-08T01:08:15;100120.78;;;5.92;100.00
76404;BME280;65232;48.358;2.122;2024-03-08T01:08:41;100118.53;;;5.86;100.00
76404;BME280;65232;48.358;2.122;2024-03-08T01:09:07;100121.53;;;5.81;100.00
76404;BME280;65232;48.358;2.122;2024-03-08T01:09:34;100114.41;;;5.82;100.00
76404;BME280;65232;48.358;2.122;2024-03-08T01:09:59;100118.97;;;5.80;100.00
76404;BME280;65232;48.358;2.122;2024-03-08T01:10:25;100116.75;;;5.86;100.00
76404;BME280;65232;48.358;2.122;2024-03-08T01:10:52;100115.88;;;5.86;100.00
76404;BME280;65232;48.358;2.122;2024-03-08T01:11:18;100121.94;;;5.88;100.00
76404;BME280;65232;48.358;2.122;2024-03-08T01:11:44;100122.03;;;5.86;100.00
76404;BME280;65232;48.358;2.122;2024-03-08T01:12:10;100113.66;;;5.80;100.00
76404;BME280;65232;48.358;2.122;2024-03-08T01:12:35;100124.19;;;5.81;100.00
76404;BME280;65232;48.358;2.122;2024-03-08T01:13:01;100114.31;;;5.83;100.00
76404;BME280;65232;48.358;2.122;2024-03-08T01:13:26;100116.31;;;5.80;100.00
76404;BME280;65232;48.358;2.122;2024-03-08T01:13:51;100112.56;;;5.71;100.00
76404;BME280;65232;48.358;2.122;2024-03-08T01:14:18;100120.31;;;5.74;100.00
76404;BME280;65232;48.358;2.122;2024-03-08T01:14:43;100111.59;;;5.72;100.00
76404;BME280;65232;48.358;2.122;2024-03-08T01:15:09;100114.25;;;5.72;100.00
76404;BME280;65232;48.358;2.122;2024-03-08T01:15:38;100115.22;;;5.71;100.00
76404;BME280;65232;48.358;2.122;2024-03-08T01:16:06;100109.56;;;5.76;100.00
76404;BME280;65232;48.358;2.122;2024-03-08T01:16:32;100120.19;;;5.76;100.00
76404;BME280;65232;48.358;2.122;2024-03-08T01:16:58;100122.09;;;5.74;100.00
76404;BME280;65232;48.358;2.122;2024-03-08T01:17:24;100107.88;;;5.75;100.00
76404;BME280;65232;48.358;2.122;2024-03-08T01:17:49;100110.66;;;5.73;100.00
76404;BME280;65232;48.358;2.122;2024-03-08T01:18:15;100115.00;;;5.74;100.00
76404;BME280;65232;48.358;2.122;2024-03-08T01:18:40;100109.91;;;5.71;100.00
76404;BME280;65232;48.358;2.122;2024-03-08T01:19:06;100118.72;;;5.72;100.00
76404;BME280;65232;48.358;2.122;2024-03-08T01:19:31;100107.13;;;5.73;100.00
76404;BME280;65232;48.358;2.122;2024-03-08T01:19:58;100112.13;;;5.77;100.00
76404;BME280;65232;48.358;2.122;2024-03-08T01:20:23;100115.72;;;5.76;100.00
76404;BME280;65232;48.358;2.122;2024-03-08T01:20:49;100109.78;;;5.73;100.00
76404;BME280;65232;48.358;2.122;2024-03-08T01:21:14;100109.16;;;5.69;100.00
76404;BME280;65232;48.358;2.122;2024-03-08T01:21:39;100118.50;;;5.75;100.00
76404;BME280;65232;48.358;2.122;2024-03-08T01:22:05;100116.63;;;5.64;100.00
76404;BME280;65232;48.358;2.122;2024-03-08T01:22:30;100114.22;;;5.61;100.00
76404;BME280;65232;48.358;2.122;2024-03-08T01:22:56;100111.44;;;5.62;100.00
76404;BME280;65232;48.358;2.122;2024-03-08T01:23:22;100111.31;;;5.64;100.00
76404;BME280;65232;48.358;2.122;2024-03-08T01:23:47;100114.59;;;5.67;100.00
76404;BME280;65232;48.358;2.122;2024-03-08T01:24:13;100112.66;;;5.70;100.00
76404;BME280;65232;48.358;2.122;2024-03-08T01:24:38;100108.31;;;5.68;100.00
76404;BME280;65232;48.358;2.122;2024-03-08T01:25:04;100103.97;;;5.67;100.00
76404;BME280;65232;48.358;2.122;2024-03-08T01:25:30;100111.94;;;5.67;100.00
76404;BME280;65232;48.358;2.122;2024-03-08T01:25:57;100118.31;;;5.65;100.00
76404;BME280;65232;48.358;2.122;2024-03-08T01:26:22;100113.53;;;5.70;100.00
76404;BME280;65232;48.358;2.122;2024-03-08T01:26:47;100103.13;;;5.67;100.00
76404;BME280;65232;48.358;2.122;2024-03-08T01:27:14;100108.44;;;5.67;100.00
76404;BME280;65232;48.358;2.122;2024-03-08T01:27:39;100115.44;;;5.68;100.00
76404;BME280;65232;48.358;2.122;2024-03-08T01:28:05;100110.88;;;5.70;100.00
76404;BME280;65232;48.358;2.122;2024-03-08T01:28:31;100110.22;;;5.66;100.00
76404;BME280;65232;48.358;2.122;2024-03-08T01:28:56;100117.47;;;5.64;100.00
76404;BME280;65232;48.358;2.122;2024-03-08T01:29:22;100115.31;;;5.70;100.00
76404;BME280;65232;48.358;2.122;2024-03-08T01:29:48;100116.16;;;5.70;100.00
76404;BME280;65232;48.358;2.122;2024-03-08T01:30:13;100106.50;;;5.69;100.00
76404;BME280;65232;48.358;2.122;2024-03-08T01:30:41;100114.59;;;5.67;100.00
76404;BME280;65232;48.358;2.122;2024-03-08T01:31:08;100108.44;;;5.67;100.00
76404;BME280;65232;48.358;2.122;2024-03-08T01:31:33;100107.69;;;5.65;100.00
76404;BME280;65232;48.358;2.122;2024-03-08T01:31:58;100114.09;;;5.62;100.00
76404;BME280;65232;48.358;2.122;2024-03-08T01:32:26;100102.16;;;5.68;100.00
76404;BME280;65232;48.358;2.122;2024-03-08T01:32:52;100101.53;;;5.64;100.00
76404;BME280;65232;48.358;2.122;2024-03-08T01:33:17;100099.13;;;5.61;100.00
76404;BME280;65232;48.358;2.122;2024-03-08T01:33:43;100105.03;;;5.65;100.00
76404;BME280;65232;48.358;2.122;2024-03-08T01:34:10;100105.66;;;5.68;100.00
76404;BME280;65232;48.358;2.122;2024-03-08T01:34:35;100100.69;;;5.64;100.00
76404;BME280;65232;48.358;2.122;2024-03-08T01:35:01;100098.28;;;5.61;100.00
76404;BME280;65232;48.358;2.122;2024-03-08T01:35:27;100097.44;;;5.60;100.00
76404;BME280;65232;48.358;2.122;2024-03-08T01:35:53;100109.00;;;5.59;100.00
76404;BME280;65232;48.358;2.122;2024-03-08T01:36:19;100099.97;;;5.62;100.00
76404;BME280;65232;48.358;2.122;2024-03-08T01:36:44;100095.53;;;5.62;100.00
76404;BME280;65232;48.358;2.122;2024-03-08T01:37:10;100104.66;;;5.58;100.00
76404;BME280;65232;48.358;2.122;2024-03-08T01:37:36;100103.34;;;5.64;100.00
76404;BME280;65232;48.358;2.122;2024-03-08T01:38:01;100102.63;;;5.62;100.00
76404;BME280;65232;48.358;2.122;2024-03-08T01:38:29;100093.41;;;5.55;100.00
76404;BME280;65232;48.358;2.122;2024-03-08T01:38:55;100095.75;;;5.59;100.00
76404;BME280;65232;48.358;2.122;2024-03-08T01:39:20;100096.97;;;5.66;100.00
76404;BME280;65232;48.358;2.122;2024-03-08T01:39:47;100095.53;;;5.62;100.00
76404;BME280;65232;48.358;2.122;2024-03-08T01:40:12;100096.81;;;5.57;100.00
76404;BME280;65232;48.358;2.122;2024-03-08T01:40:38;100095.00;;;5.57;100.00
76404;BME280;65232;48.358;2.122;2024-03-08T01:41:06;100090.97;;;5.52;100.00
76404;BME280;65232;48.358;2.122;2024-03-08T01:41:31;100088.56;;;5.49;100.00
76404;BME280;65232;48.358;2.122;2024-03-08T01:41:57;100091.94;;;5.51;100.00
76404;BME280;65232;48.358;2.122;2024-03-08T01:42:22;100090.38;;;5.48;100.00
76404;BME280;65232;48.358;2.122;2024-03-08T01:42:47;100088.91;;;5.44;100.00
76404;BME280;65232;48.358;2.122;2024-03-08T01:43:19;100095.09;;;5.56;100.00
76404;BME280;65232;48.358;2.122;2024-03-08T01:43:45;100089.81;;;5.56;100.00
76404;BME280;65232;48.358;2.122;2024-03-08T01:44:10;100095.22;;;5.54;100.00
76404;BME280;65232;48.358;2.122;2024-03-08T01:44:36;100091.81;;;5.52;100.00
76404;BME280;65232;48.358;2.122;2024-03-08T01:45:01;100085.41;;;5.44;100.00
76404;BME280;65232;48.358;2.122;2024-03-08T01:45:26;100085.84;;;5.38;100.00
76404;BME280;65232;48.358;2.122;2024-03-08T01:45:52;100097.41;;;5.37;100.00
76404;BME280;65232;48.358;2.122;2024-03-08T01:46:19;100087.16;;;5.32;100.00
76404;BME280;65232;48.358;2.122;2024-03-08T01:46:48;100082.34;;;5.37;100.00
76404;BME280;65232;48.358;2.122;2024-03-08T01:47:14;100089.44;;;5.37;100.00
76404;BME280;65232;48.358;2.122;2024-03-08T01:47:40;100084.03;;;5.38;100.00
76404;BME280;65232;48.358;2.122;2024-03-08T01:48:05;100087.03;;;5.34;100.00
76404;BME280;65232;48.358;2.122;2024-03-08T01:48:31;100082.34;;;5.37;100.00
76404;BME280;65232;48.358;2.122;2024-03-08T01:48:57;100082.34;;;5.37;100.00
76404;BME280;65232;48.358;2.122;2024-03-08T01:49:23;100084.97;;;5.37;100.00
76404;BME280;65232;48.358;2.122;2024-03-08T01:49:50;100082.22;;;5.39;100.00
76404;BME280;65232;48.358;2.122;2024-03-08T01:50:16;100087.22;;;5.43;100.00
76404;BME280;65232;48.358;2.122;2024-03-08T01:50:41;100076.66;;;5.30;100.00
76404;BME280;65232;48.358;2.122;2024-03-08T01:51:07;100082.28;;;5.26;100.00
76404;BME280;65232;48.358;2.122;2024-03-08T01:51:33;100078.66;;;5.27;100.00
76404;BME280;65232;48.358;2.122;2024-03-08T01:51:58;100069.00;;;5.26;100.00
76404;BME280;65232;48.358;2.122;2024-03-08T01:52:24;100078.03;;;5.23;100.00
76404;BME280;65232;48.358;2.122;2024-03-08T01:52:50;100084.59;;;5.30;100.00
76404;BME280;65232;48.358;2.122;2024-03-08T01:53:17;100076.00;;;5.27;100.00
76404;BME280;65232;48.358;2.122;2024-03-08T01:53:46;100069.13;;;5.24;100.00
76404;BME280;65232;48.358;2.122;2024-03-08T01:54:12;100076.84;;;5.27;100.00
76404;BME280;65232;48.358;2.122;2024-03-08T01:54:39;100076.44;;;5.34;100.00
76404;BME280;65232;48.358;2.122;2024-03-08T01:55:06;100075.34;;;5.36;100.00
76404;BME280;65232;48.358;2.122;2024-03-08T01:55:32;100075.97;;;5.40;100.00
76404;BME280;65232;48.358;2.122;2024-03-08T01:55:58;100077.44;;;5.44;100.00
76404;BME280;65232;48.358;2.122;2024-03-08T01:56:24;100077.88;;;5.38;100.00
76404;BME280;65232;48.358;2.122;2024-03-08T01:56:50;100068.56;;;5.32;100.00
76404;BME280;65232;48.358;2.122;2024-03-08T01:57:16;100067.09;;;5.28;100.00
76404;BME280;65232;48.358;2.122;2024-03-08T01:57:42;100071.22;;;5.32;100.00
76404;BME280;65232;48.358;2.122;2024-03-08T01:58:09;100072.19;;;5.31;100.00
76404;BME280;65232;48.358;2.122;2024-03-08T01:58:35;100071.13;;;5.34;100.00
76404;BME280;65232;48.358;2.122;2024-03-08T01:59:01;100065.81;;;5.34;100.00
76404;BME280;65232;48.358;2.122;2024-03-08T01:59:26;100061.09;;;5.37;100.00
76404;BME280;65232;48.358;2.122;2024-03-08T01:59:53;100060.38;;;5.35;100.00
76404;BME280;65232;48.358;2.122;2024-03-08T02:00:21;100064.56;;;5.26;100.00
76404;BME280;65232;48.358;2.122;2024-03-08T02:00:47;100061.69;;;5.29;100.00
76404;BME280;65232;48.358;2.122;2024-03-08T02:01:15;100061.91;;;5.26;100.00
76404;BME280;65232;48.358;2.122;2024-03-08T02:01:43;100064.66;;;5.25;100.00
76404;BME280;65232;48.358;2.122;2024-03-08T02:02:11;100064.66;;;5.25;100.00
76404;BME280;65232;48.358;2.122;2024-03-08T02:02:37;100058.19;;;5.29;100.00
76404;BME280;65232;48.358;2.122;2024-03-08T02:03:02;100058.56;;;5.36;100.00
76404;BME280;65232;48.358;2.122;2024-03-08T02:03:29;100056.53;;;5.39;100.00
76404;BME280;65232;48.358;2.122;2024-03-08T02:03:56;100050.00;;;5.32;100.00
76404;BME280;65232;48.358;2.122;2024-03-08T02:04:22;100056.38;;;5.29;100.00
76404;BME280;65232;48.358;2.122;2024-03-08T02:04:48;100055.22;;;5.34;100.00
76404;BME280;65232;48.358;2.122;2024-03-08T02:05:14;100051.19;;;5.28;100.00
76404;BME280;65232;48.358;2.122;2024-03-08T02:05:40;100049.44;;;5.40;100.00
76404;BME280;65232;48.358;2.122;2024-03-08T02:06:05;100046.25;;;5.35;100.00
76404;BME280;65232;48.358;2.122;2024-03-08T02:06:35;100042.78;;;5.34;100.00
76404;BME280;65232;48.358;2.122;2024-03-08T02:07:00;100045.31;;;5.36;100.00
76404;BME280;65232;48.358;2.122;2024-03-08T02:07:26;100038.66;;;5.30;100.00
76404;BME280;65232;48.358;2.122;2024-03-08T02:07:51;100040.34;;;5.31;100.00
76404;BME280;65232;48.358;2.122;2024-03-08T02:08:17;100035.06;;;5.31;100.00
76404;BME280;65232;48.358;2.122;2024-03-08T02:08:43;100036.84;;;5.30;100.00
76404;BME280;65232;48.358;2.122;2024-03-08T02:09:09;100032.28;;;5.32;100.00
76404;BME280;65232;48.358;2.122;2024-03-08T02:09:35;100031.19;;;5.35;100.00
76404;BME280;65232;48.358;2.122;2024-03-08T02:10:00;100032.94;;;5.23;100.00
76404;BME280;65232;48.358;2.122;2024-03-08T02:10:26;100031.50;;;5.19;100.00
76404;BME280;65232;48.358;2.122;2024-03-08T02:10:51;100024.72;;;5.15;100.00
76404;BME280;65232;48.358;2.122;2024-03-08T02:11:17;100033.69;;;5.25;100.00
76404;BME280;65232;48.358;2.122;2024-03-08T02:11:44;100022.00;;;5.28;100.00
76404;BME280;65232;48.358;2.122;2024-03-08T02:12:10;100024.56;;;5.29;100.00
76404;BME280;65232;48.358;2.122;2024-03-08T02:12:38;100023.81;;;5.27;100.00
76404;BME280;65232;48.358;2.122;2024-03-08T02:13:04;100024.88;;;5.25;100.00
76404;BME280;65232;48.358;2.122;2024-03-08T02:13:30;100022.56;;;5.20;100.00
76404;BME280;65232;48.358;2.122;2024-03-08T02:13:55;100015.97;;;5.26;100.00
76404;BME280;65232;48.358;2.122;2024-03-08T02:14:21;100023.19;;;5.24;100.00
76404;BME280;65232;48.358;2.122;2024-03-08T02:14:46;100024.25;;;5.21;100.00
76404;BME280;65232;48.358;2.122;2024-03-08T02:15:12;100021.00;;;5.18;100.00
76404;BME280;65232;48.358;2.122;2024-03-08T02:15:53;100019.31;;;5.17;100.00